createdAt,value
2018-10-19T00:00:15.030Z,11.00
2018-10-19T00:01:15.017Z,10.88
2018-10-19T00:02:15.000Z,10.96
2018-10-19T00:03:15.067Z,10.96
2018-10-19T00:04:14.966Z,10.96
2018-10-19T00:05:14.968Z,10.94
2018-10-19T00:06:14.926Z,10.96
2018-10-19T00:07:14.910Z,10.97
2018-10-19T00:08:14.893Z,10.89
2018-10-19T00:09:15.092Z,10.81
2018-10-19T00:10:14.876Z,10.92
2018-10-19T00:11:14.942Z,10.85
2018-10-19T00:12:14.836Z,10.82
2018-10-19T00:13:14.817Z,10.85
2018-10-19T00:14:14.805Z,10.81
2018-10-19T00:15:14.935Z,10.79
2018-10-19T00:16:14.775Z,10.84
2018-10-19T00:17:14.844Z,10.84
2018-10-19T00:18:14.744Z,10.86
2018-10-19T00:19:14.737Z,10.86
2018-10-19T00:20:14.723Z,10.89
2018-10-19T00:21:14.751Z,10.84
2018-10-19T00:22:14.678Z,10.88
2018-10-19T00:23:14.812Z,10.82
2018-10-19T00:24:14.647Z,10.85
2018-10-19T00:25:14.661Z,10.79
2018-10-19T00:26:14.628Z,10.84
2018-10-19T00:27:14.658Z,10.79
2018-10-19T00:28:14.614Z,10.85
2018-10-19T00:29:14.646Z,10.85
2018-10-19T00:30:14.586Z,10.84
2018-10-19T00:31:14.547Z,10.89
2018-10-19T00:32:14.597Z,10.76
2018-10-19T00:33:14.628Z,10.79
2018-10-19T00:34:14.498Z,10.74
2018-10-19T00:35:14.558Z,10.78
2018-10-19T00:36:14.464Z,10.79
2018-10-19T00:37:14.456Z,10.76
2018-10-19T00:38:14.440Z,10.76
2018-10-19T00:39:14.452Z,10.76
2018-10-19T00:40:14.413Z,10.73
2018-10-19T00:41:14.448Z,10.74
2018-10-19T00:42:14.386Z,10.67
2018-10-19T00:43:14.414Z,10.78
2018-10-19T00:44:14.349Z,10.68
2018-10-19T00:45:14.434Z,10.78
2018-10-19T00:46:14.318Z,10.73
2018-10-19T00:47:14.349Z,10.78
2018-10-19T00:48:14.284Z,10.76
2018-10-19T00:49:14.271Z,10.73
2018-10-19T00:50:14.261Z,10.76
2018-10-19T00:51:14.322Z,10.73
2018-10-19T00:52:14.217Z,10.74
2018-10-19T00:53:14.284Z,10.76
2018-10-19T00:54:14.214Z,10.76
2018-10-19T00:55:14.184Z,10.76
2018-10-19T00:56:14.163Z,10.68
2018-10-19T00:57:14.192Z,10.76
2018-10-19T00:58:14.135Z,10.68
2018-10-19T00:59:14.297Z,10.76
2018-10-19T01:00:14.095Z,10.76
2018-10-19T01:01:14.078Z,10.70
2018-10-19T01:02:14.075Z,10.78
2018-10-19T01:03:14.136Z,10.74
2018-10-19T01:04:14.044Z,10.76
2018-10-19T01:05:14.120Z,10.66
2018-10-19T01:06:14.037Z,10.76
2018-10-19T01:07:14.015Z,10.74
2018-10-19T01:08:13.968Z,10.81
2018-10-19T01:09:13.960Z,10.67
2018-10-19T01:10:13.948Z,10.64
2018-10-19T01:11:14.059Z,10.71
2018-10-19T01:12:13.918Z,10.63
2018-10-19T01:13:13.908Z,10.67
2018-10-19T01:14:13.911Z,10.55
2018-10-19T01:15:13.928Z,10.60
2018-10-19T01:16:13.844Z,10.60
2018-10-19T01:17:13.928Z,10.52
2018-10-19T01:18:13.824Z,10.59
2018-10-19T01:19:13.804Z,10.52
2018-10-19T01:20:13.795Z,10.66
2018-10-19T01:21:13.852Z,10.60
2018-10-19T01:22:13.783Z,10.63
2018-10-19T01:23:13.793Z,10.55
2018-10-19T01:24:13.726Z,10.48
2018-10-19T01:25:13.706Z,10.40
2018-10-19T01:26:13.688Z,10.42
2018-10-19T01:27:13.742Z,10.41
2018-10-19T01:28:13.662Z,10.38
2018-10-19T01:29:13.720Z,10.40
2018-10-19T01:30:13.633Z,10.34
2018-10-19T01:31:13.608Z,10.38
2018-10-19T01:32:13.627Z,10.36
2018-10-19T01:33:13.595Z,10.38
2018-10-19T01:34:13.558Z,10.36
2018-10-19T01:35:13.566Z,10.38
2018-10-19T01:36:13.554Z,10.36
2018-10-19T01:37:13.517Z,10.40
2018-10-19T01:38:13.539Z,10.41
2018-10-19T01:39:13.552Z,10.48
2018-10-19T01:40:13.468Z,10.45
2018-10-19T01:41:13.535Z,10.45
2018-10-19T01:42:13.433Z,10.52
2018-10-19T01:43:13.422Z,10.36
2018-10-19T01:44:13.422Z,10.42
2018-10-19T01:45:13.561Z,10.48
2018-10-19T01:46:13.382Z,10.47
2018-10-19T01:47:13.419Z,10.45
2018-10-19T01:48:13.345Z,10.44
2018-10-19T01:49:13.401Z,10.44
2018-10-19T01:50:13.313Z,10.47
2018-10-19T01:51:13.411Z,10.47
2018-10-19T01:52:13.289Z,10.45
2018-10-19T01:53:13.301Z,10.40
2018-10-19T01:54:13.252Z,10.42
2018-10-19T01:55:13.269Z,10.48
2018-10-19T01:56:13.272Z,10.44
2018-10-19T01:57:13.282Z,10.47
2018-10-19T01:58:13.186Z,10.51
2018-10-19T01:59:13.278Z,10.47
2018-10-19T02:00:13.168Z,10.53
2018-10-19T02:01:13.364Z,10.48
2018-10-19T02:02:13.178Z,10.48
2018-10-19T02:03:13.225Z,10.47
2018-10-19T02:04:13.105Z,10.40
2018-10-19T02:05:13.144Z,10.34
2018-10-19T02:06:13.072Z,10.36
2018-10-19T02:07:13.052Z,10.36
2018-10-19T02:08:13.036Z,10.40
2018-10-19T02:09:13.074Z,10.40
2018-10-19T02:10:12.995Z,10.40
2018-10-19T02:11:13.075Z,10.38
2018-10-19T02:12:13.002Z,10.47
2018-10-19T02:13:12.966Z,10.47
2018-10-19T02:14:12.932Z,10.42
2018-10-19T02:15:13.062Z,10.36
2018-10-19T02:16:12.923Z,10.36
2018-10-19T02:17:12.992Z,10.36
2018-10-19T02:18:12.872Z,10.33
2018-10-19T02:19:12.857Z,10.33
2018-10-19T02:20:12.861Z,10.33
2018-10-19T02:21:12.840Z,10.34
2018-10-19T02:22:12.850Z,10.40
2018-10-19T02:23:12.860Z,10.36
2018-10-19T02:24:12.782Z,10.40
2018-10-19T02:25:12.766Z,10.33
2018-10-19T02:26:12.748Z,10.36
2018-10-19T02:27:12.865Z,10.32
2018-10-19T02:28:12.724Z,10.34
2018-10-19T02:29:12.770Z,10.33
2018-10-19T02:30:12.683Z,10.33
2018-10-19T02:31:12.967Z,10.38
2018-10-19T02:32:12.665Z,10.36
2018-10-19T02:33:12.708Z,10.38
2018-10-19T02:34:12.628Z,10.40
2018-10-19T02:35:12.723Z,10.38
2018-10-19T02:36:12.594Z,10.36
2018-10-19T02:37:12.578Z,10.32
2018-10-19T02:38:12.618Z,10.36
2018-10-19T02:39:12.551Z,10.34
2018-10-19T02:40:12.542Z,10.36
2018-10-19T02:41:12.584Z,10.29
2018-10-19T02:42:12.505Z,10.25
2018-10-19T02:43:12.493Z,10.26
2018-10-19T02:44:12.528Z,10.26
2018-10-19T02:45:12.530Z,10.27
2018-10-19T02:46:12.427Z,10.23
2018-10-19T02:47:12.572Z,10.23
2018-10-19T02:48:12.402Z,10.23
2018-10-19T02:49:12.395Z,10.22
2018-10-19T02:50:12.370Z,10.15
2018-10-19T02:51:12.435Z,10.23
2018-10-19T02:52:12.346Z,10.23
2018-10-19T02:53:12.335Z,10.22
2018-10-19T02:54:12.340Z,10.22
2018-10-19T02:55:12.287Z,10.26
2018-10-19T02:56:12.284Z,10.25
2018-10-19T02:57:12.357Z,10.25
2018-10-19T02:58:12.246Z,10.26
2018-10-19T02:59:12.315Z,10.26
2018-10-19T03:00:12.215Z,10.25
2018-10-19T03:01:12.209Z,10.27
2018-10-19T03:02:12.180Z,10.26
2018-10-19T03:03:12.183Z,10.23
2018-10-19T03:04:12.184Z,10.25
2018-10-19T03:05:12.223Z,10.26
2018-10-19T03:06:12.111Z,10.23
2018-10-19T03:07:12.127Z,10.27
2018-10-19T03:08:12.088Z,10.29
2018-10-19T03:09:12.126Z,10.27
2018-10-19T03:10:12.065Z,10.25
2018-10-19T03:11:12.077Z,10.27
2018-10-19T03:12:12.026Z,10.20
2018-10-19T03:13:12.023Z,10.26
2018-10-19T03:14:11.989Z,10.18
2018-10-19T03:15:12.096Z,10.18
2018-10-19T03:16:11.973Z,10.17
2018-10-19T03:17:12.010Z,10.15
2018-10-19T03:18:11.930Z,10.12
2018-10-19T03:19:11.930Z,10.18
2018-10-19T03:20:11.895Z,10.11
2018-10-19T03:21:11.986Z,10.18
2018-10-19T03:22:11.867Z,10.18
2018-10-19T03:23:11.939Z,10.14
2018-10-19T03:24:11.842Z,10.15
2018-10-19T03:25:11.814Z,10.15
2018-10-19T03:26:11.813Z,10.14
2018-10-19T03:27:11.861Z,10.20
2018-10-19T03:28:11.771Z,10.09
2018-10-19T03:29:11.835Z,10.05
2018-10-19T03:30:11.738Z,10.05
2018-10-19T03:31:11.831Z,10.04
2018-10-19T03:32:11.717Z,10.01
2018-10-19T03:33:11.760Z,10.05
2018-10-19T03:34:11.675Z,10.09
2018-10-19T03:35:11.787Z,10.04
2018-10-19T03:36:11.680Z,10.04
2018-10-19T03:37:11.637Z,10.01
2018-10-19T03:38:11.641Z,10.05
2018-10-19T03:39:11.656Z,10.04
2018-10-19T03:40:11.584Z,9.91
2018-10-19T03:41:11.760Z,9.94
2018-10-19T03:42:11.558Z,9.93
2018-10-19T03:43:11.533Z,9.96
2018-10-19T03:44:11.538Z,9.94
2018-10-19T03:45:11.589Z,9.89
2018-10-19T03:46:11.499Z,9.91
2018-10-19T03:47:11.549Z,9.91
2018-10-19T03:48:11.459Z,9.90
2018-10-19T03:49:11.613Z,9.89
2018-10-19T03:50:11.424Z,9.90
2018-10-19T03:51:11.459Z,9.94
2018-10-19T03:52:11.395Z,10.01
2018-10-19T03:53:11.453Z,9.90
2018-10-19T03:54:11.405Z,9.89
2018-10-19T03:55:11.331Z,9.99
2018-10-19T03:56:11.323Z,10.04
2018-10-19T03:57:11.372Z,9.94
2018-10-19T03:58:11.298Z,9.94
2018-10-19T03:59:11.332Z,9.97
2018-10-19T04:00:11.262Z,10.02
2018-10-19T04:01:11.482Z,10.01
2018-10-19T04:02:11.226Z,9.99
2018-10-19T04:03:11.273Z,9.99
2018-10-19T04:04:11.204Z,10.05
2018-10-19T04:05:11.283Z,9.97
2018-10-19T04:06:11.172Z,10.09
2018-10-19T04:07:11.152Z,10.09
2018-10-19T04:08:11.136Z,10.02
2018-10-19T04:09:11.121Z,9.96
2018-10-19T04:10:11.101Z,10.07
2018-10-19T04:11:11.161Z,10.07
2018-10-19T04:12:11.069Z,10.08
2018-10-19T04:13:11.057Z,10.05
2018-10-19T04:14:11.028Z,9.99
2018-10-19T04:15:11.054Z,9.99
2018-10-19T04:16:11.030Z,10.01
2018-10-19T04:17:11.064Z,10.04
2018-10-19T04:18:10.965Z,10.01
2018-10-19T04:19:10.968Z,10.11
2018-10-19T04:20:10.946Z,10.07
2018-10-19T04:21:10.987Z,9.93
2018-10-19T04:22:10.903Z,9.97
2018-10-19T04:23:10.975Z,9.99
2018-10-19T04:24:10.880Z,9.89
2018-10-19T04:25:10.854Z,10.02
2018-10-19T04:26:10.883Z,9.97
2018-10-19T04:27:10.922Z,10.07
2018-10-19T04:28:10.823Z,10.07
2018-10-19T04:29:10.817Z,9.93
2018-10-19T04:30:10.785Z,9.99
2018-10-19T04:31:10.769Z,9.91
2018-10-19T04:32:10.749Z,10.01
2018-10-19T04:33:10.797Z,9.99
2018-10-19T04:34:10.725Z,9.99
2018-10-19T04:35:10.774Z,10.09
2018-10-19T04:36:10.729Z,10.04
2018-10-19T04:37:10.666Z,10.02
2018-10-19T04:38:10.649Z,9.97
2018-10-19T04:39:10.780Z,10.04
2018-10-19T04:40:10.623Z,10.01
2018-10-19T04:41:10.716Z,10.08
2018-10-19T04:42:10.592Z,10.04
2018-10-19T04:43:10.579Z,9.90
2018-10-19T04:44:10.565Z,9.97
2018-10-19T04:45:10.619Z,9.91
2018-10-19T04:46:10.527Z,9.89
2018-10-19T04:47:10.562Z,9.97
2018-10-19T04:48:10.541Z,10.02
2018-10-19T04:49:10.550Z,9.96
2018-10-19T04:50:10.456Z,9.96
2018-10-19T04:51:10.517Z,9.94
2018-10-19T04:52:10.430Z,9.91
2018-10-19T04:53:10.444Z,9.89
2018-10-19T04:54:10.387Z,9.93
2018-10-19T04:55:10.439Z,9.97
2018-10-19T04:56:10.356Z,9.89
2018-10-19T04:57:10.384Z,9.91
2018-10-19T04:58:10.326Z,9.87
2018-10-19T04:59:10.370Z,9.90
2018-10-19T05:00:10.285Z,9.87
2018-10-19T05:01:10.457Z,9.90
2018-10-19T05:02:10.269Z,9.90
2018-10-19T05:03:10.397Z,9.87
2018-10-19T05:04:10.249Z,9.91
2018-10-19T05:05:10.367Z,9.91
2018-10-19T05:06:10.326Z,9.89
2018-10-19T05:07:10.193Z,9.89
2018-10-19T05:08:10.323Z,9.91
2018-10-19T05:09:10.163Z,9.91
2018-10-19T05:10:10.138Z,9.91
2018-10-19T05:11:10.313Z,9.91
2018-10-19T05:12:10.108Z,9.93
2018-10-19T05:13:10.147Z,9.96
2018-10-19T05:14:10.137Z,9.84
2018-10-19T05:15:10.051Z,9.89
2018-10-19T05:16:10.044Z,9.90
2018-10-19T05:17:10.056Z,9.86
2018-10-19T05:18:10.015Z,9.87
2018-10-19T05:19:09.988Z,9.81
2018-10-19T05:20:10.051Z,9.81
2018-10-19T05:21:09.976Z,9.86
2018-10-19T05:22:09.969Z,9.89
2018-10-19T05:23:09.988Z,9.93
2018-10-19T05:24:09.903Z,9.76
2018-10-19T05:25:09.899Z,9.94
2018-10-19T05:26:09.960Z,9.93
2018-10-19T05:27:09.853Z,9.86
2018-10-19T05:28:09.879Z,9.91
2018-10-19T05:29:09.885Z,9.97
2018-10-19T05:30:09.805Z,9.94
2018-10-19T05:31:09.997Z,9.89
2018-10-19T05:32:09.822Z,9.79
2018-10-19T05:33:09.774Z,9.78
2018-10-19T05:34:09.788Z,9.84
2018-10-19T05:35:09.788Z,9.81
2018-10-19T05:36:09.722Z,9.87
2018-10-19T05:37:09.690Z,9.76
2018-10-19T05:38:09.685Z,9.79
2018-10-19T05:39:09.751Z,9.79
2018-10-19T05:40:09.646Z,9.78
2018-10-19T05:41:09.665Z,9.81
2018-10-19T05:42:09.613Z,9.79
2018-10-19T05:43:09.600Z,9.79
2018-10-19T05:44:09.636Z,9.79
2018-10-19T05:45:09.590Z,9.72
2018-10-19T05:46:09.547Z,9.75
2018-10-19T05:47:09.601Z,9.71
2018-10-19T05:48:09.517Z,9.78
2018-10-19T05:49:09.529Z,9.79
2018-10-19T05:50:09.556Z,9.78
2018-10-19T05:51:09.485Z,9.84
2018-10-19T05:52:09.525Z,9.79
2018-10-19T05:53:09.475Z,9.84
2018-10-19T05:54:09.432Z,9.78
2018-10-19T05:55:09.394Z,9.79
2018-10-19T05:56:09.486Z,9.90
2018-10-19T05:57:09.375Z,9.86
2018-10-19T05:58:09.362Z,9.87
2018-10-19T05:59:09.379Z,9.96
2018-10-19T06:00:09.333Z,9.96
2018-10-19T06:01:09.593Z,9.90
2018-10-19T06:02:09.345Z,9.91
2018-10-19T06:03:09.268Z,9.90
2018-10-19T06:04:09.260Z,9.99
2018-10-19T06:05:09.291Z,10.04
2018-10-19T06:06:09.235Z,10.07
2018-10-19T06:07:09.218Z,10.04
2018-10-19T06:08:09.278Z,10.07
2018-10-19T06:09:09.184Z,9.94
2018-10-19T06:10:09.168Z,10.05
2018-10-19T06:11:09.219Z,9.99
2018-10-19T06:12:09.124Z,10.05
2018-10-19T06:13:09.123Z,10.04
2018-10-19T06:14:09.141Z,9.93
2018-10-19T06:15:09.089Z,10.02
2018-10-19T06:16:09.064Z,10.04
2018-10-19T06:17:09.269Z,10.08
2018-10-19T06:18:09.042Z,10.02
2018-10-19T06:19:09.020Z,9.93
2018-10-19T06:20:09.085Z,9.91
2018-10-19T06:21:09.027Z,9.94
2018-10-19T06:22:08.970Z,9.91
2018-10-19T06:23:09.043Z,9.93
2018-10-19T06:24:08.936Z,9.87
2018-10-19T06:25:08.915Z,9.91
2018-10-19T06:26:08.971Z,9.91
2018-10-19T06:27:08.916Z,9.93
2018-10-19T06:28:08.869Z,9.87
2018-10-19T06:29:08.979Z,9.90
2018-10-19T06:30:08.847Z,9.91
2018-10-19T06:31:08.822Z,9.89
2018-10-19T06:32:08.874Z,9.94
2018-10-19T06:33:08.803Z,9.90
2018-10-19T06:34:08.812Z,9.93
2018-10-19T06:35:08.804Z,9.84
2018-10-19T06:36:08.740Z,9.91
2018-10-19T06:37:08.727Z,9.90
2018-10-19T06:38:08.767Z,9.93
2018-10-19T06:39:08.733Z,9.94
2018-10-19T06:40:08.688Z,9.90
2018-10-19T06:41:08.731Z,9.97
2018-10-19T06:42:08.653Z,9.90
2018-10-19T06:43:08.628Z,9.91
2018-10-19T06:44:08.685Z,9.90
2018-10-19T06:45:08.602Z,9.87
2018-10-19T06:46:08.582Z,9.86
2018-10-19T06:47:08.690Z,9.89
2018-10-19T06:48:08.546Z,9.83
2018-10-19T06:49:08.628Z,9.87
2018-10-19T06:50:08.576Z,9.81
2018-10-19T06:51:08.496Z,9.74
2018-10-19T06:52:08.481Z,9.71
2018-10-19T06:53:08.547Z,9.69
2018-10-19T06:54:08.494Z,9.72
2018-10-19T06:55:08.438Z,9.79
2018-10-19T06:56:08.487Z,9.72
2018-10-19T06:57:08.415Z,9.76
2018-10-19T06:58:08.405Z,9.75
2018-10-19T06:59:08.505Z,9.74
2018-10-19T07:00:08.384Z,9.65
2018-10-19T07:01:08.352Z,9.60
2018-10-19T07:02:08.396Z,9.50
2018-10-19T07:03:08.327Z,9.56
2018-10-19T07:04:08.299Z,9.53
2018-10-19T07:05:08.474Z,9.61
2018-10-19T07:06:08.324Z,9.61
2018-10-19T07:07:08.252Z,9.64
2018-10-19T07:08:08.406Z,9.64
2018-10-19T07:09:08.216Z,9.72
2018-10-19T07:10:08.214Z,9.75
2018-10-19T07:11:08.250Z,9.79
2018-10-19T07:12:08.261Z,9.84
2018-10-19T07:13:08.161Z,9.84
2018-10-19T07:14:08.190Z,9.86
2018-10-19T07:15:08.142Z,9.83
2018-10-19T07:16:08.113Z,9.94
2018-10-19T07:17:08.132Z,9.87
2018-10-19T07:18:08.066Z,9.91
2018-10-19T07:19:08.134Z,9.91
2018-10-19T07:20:08.097Z,10.05
2018-10-19T07:21:08.032Z,10.02
2018-10-19T07:22:08.033Z,9.91
2018-10-19T07:23:07.998Z,9.97
2018-10-19T07:24:07.974Z,10.07
2018-10-19T07:25:07.970Z,10.02
2018-10-19T07:26:08.045Z,10.01
2018-10-19T07:27:07.960Z,10.11
2018-10-19T07:28:07.916Z,10.04
2018-10-19T07:29:07.944Z,10.17
2018-10-19T07:30:07.873Z,10.17
2018-10-19T07:31:07.919Z,10.15
2018-10-19T07:32:07.893Z,10.25
2018-10-19T07:33:07.824Z,10.15
2018-10-19T07:34:07.946Z,10.22
2018-10-19T07:35:07.837Z,10.22
2018-10-19T07:36:07.778Z,10.23
2018-10-19T07:37:08.021Z,10.25
2018-10-19T07:38:08.010Z,10.26
2018-10-19T07:39:07.739Z,10.27
2018-10-19T07:40:07.722Z,10.29
2018-10-19T07:41:07.815Z,10.30
2018-10-19T07:42:07.740Z,10.23
2018-10-19T07:43:07.671Z,10.33
2018-10-19T07:44:07.671Z,10.30
2018-10-19T07:45:07.632Z,10.33
2018-10-19T07:46:07.618Z,10.40
2018-10-19T07:47:07.704Z,10.36
2018-10-19T07:48:07.724Z,10.34
2018-10-19T07:49:07.582Z,10.34
2018-10-19T07:50:07.627Z,10.40
2018-10-19T07:51:07.592Z,10.34
2018-10-19T07:52:07.554Z,10.38
2018-10-19T07:53:07.606Z,10.45
2018-10-19T07:54:07.555Z,10.45
2018-10-19T07:55:07.486Z,10.52
2018-10-19T07:56:07.564Z,10.52
2018-10-19T07:57:07.524Z,10.48
2018-10-19T07:58:07.439Z,10.52
2018-10-19T07:59:07.493Z,10.48
2018-10-19T08:00:07.466Z,10.53
2018-10-19T08:01:07.444Z,10.59
2018-10-19T08:02:07.452Z,10.47
2018-10-19T08:03:07.369Z,10.59
2018-10-19T08:04:07.346Z,10.56
2018-10-19T08:05:07.359Z,10.45
2018-10-19T08:06:07.311Z,10.59
2018-10-19T08:07:07.363Z,10.61
2018-10-19T08:08:07.290Z,10.56
2018-10-19T08:09:07.268Z,10.56
2018-10-19T08:10:07.257Z,10.61
2018-10-19T08:11:07.258Z,10.56
2018-10-19T08:12:07.219Z,10.55
2018-10-19T08:13:07.199Z,10.59
2018-10-19T08:14:07.214Z,10.61
2018-10-19T08:15:07.178Z,10.59
2018-10-19T08:16:07.162Z,10.61
2018-10-19T08:17:07.237Z,10.56
2018-10-19T08:18:07.123Z,10.64
2018-10-19T08:19:07.102Z,10.63
2018-10-19T08:20:07.140Z,10.74
2018-10-19T08:21:07.120Z,10.63
2018-10-19T08:22:07.056Z,10.63
2018-10-19T08:23:07.130Z,10.74
2018-10-19T08:24:07.040Z,10.74
2018-10-19T08:25:07.014Z,10.64
2018-10-19T08:26:07.065Z,10.67
2018-10-19T08:27:06.982Z,10.63
2018-10-19T08:28:06.958Z,10.64
2018-10-19T08:29:07.043Z,10.59
2018-10-19T08:30:06.932Z,10.66
2018-10-19T08:31:06.919Z,10.60
2018-10-19T08:32:06.948Z,10.55
2018-10-19T08:33:06.886Z,10.53
2018-10-19T08:34:06.870Z,10.59
2018-10-19T08:35:06.898Z,10.71
2018-10-19T08:36:06.846Z,10.70
2018-10-19T08:37:06.835Z,10.55
2018-10-19T08:38:06.818Z,10.60
2018-10-19T08:39:07.178Z,10.74
2018-10-19T08:40:06.834Z,10.78
2018-10-19T08:41:06.956Z,10.71
2018-10-19T08:42:06.874Z,10.71
2018-10-19T08:43:07.089Z,10.71
2018-10-19T08:44:06.817Z,10.74
2018-10-19T08:45:06.765Z,10.73
2018-10-19T08:46:06.714Z,10.68
2018-10-19T08:47:06.700Z,10.73
2018-10-19T08:48:06.648Z,10.78
2018-10-19T08:49:06.673Z,10.74
2018-10-19T08:50:06.628Z,10.82
2018-10-19T08:51:06.648Z,10.88
2018-10-19T08:52:06.598Z,10.82
2018-10-19T08:53:06.655Z,10.86
2018-10-19T08:54:06.578Z,10.97
2018-10-19T08:55:06.593Z,10.94
2018-10-19T08:56:06.563Z,10.94
2018-10-19T08:57:06.563Z,10.91
2018-10-19T08:58:06.515Z,10.88
2018-10-19T08:59:06.512Z,10.91
2018-10-19T09:00:06.478Z,10.85
2018-10-19T09:01:06.462Z,10.94
2018-10-19T09:02:06.469Z,10.84
2018-10-19T09:03:06.497Z,10.79
2018-10-19T09:04:06.465Z,10.84
2018-10-19T09:05:06.425Z,10.76
2018-10-19T09:06:06.492Z,10.73
2018-10-19T09:07:06.403Z,10.74
2018-10-19T09:08:06.345Z,10.79
2018-10-19T09:09:06.377Z,10.79
2018-10-19T09:10:06.324Z,10.81
2018-10-19T09:11:06.354Z,10.88
2018-10-19T09:12:06.301Z,10.85
2018-10-19T09:13:06.277Z,10.92
2018-10-19T09:14:06.297Z,10.81
2018-10-19T09:15:06.262Z,10.91
2018-10-19T09:16:06.236Z,10.84
2018-10-19T09:17:06.281Z,10.85
2018-10-19T09:18:06.193Z,10.84
2018-10-19T09:19:06.224Z,10.86
2018-10-19T09:20:06.165Z,10.81
2018-10-19T09:21:06.219Z,10.76
2018-10-19T09:22:06.141Z,10.84
2018-10-19T09:23:06.155Z,10.85
2018-10-19T09:24:06.106Z,10.97
2018-10-19T09:25:06.097Z,10.92
2018-10-19T09:26:06.079Z,10.96
2018-10-19T09:27:06.129Z,11.02
2018-10-19T09:28:06.052Z,11.02
2018-10-19T09:29:06.091Z,10.96
2018-10-19T09:30:06.019Z,10.96
2018-10-19T09:31:05.999Z,10.99
2018-10-19T09:32:06.025Z,11.02
2018-10-19T09:33:06.003Z,11.02
2018-10-19T09:34:05.974Z,11.03
2018-10-19T09:35:06.011Z,11.00
2018-10-19T09:36:06.026Z,11.00
2018-10-19T09:37:05.981Z,11.02
2018-10-19T09:38:05.896Z,10.97
2018-10-19T09:39:05.989Z,10.99
2018-10-19T09:40:05.898Z,10.91
2018-10-19T09:41:05.959Z,10.91
2018-10-19T09:42:05.909Z,10.97
2018-10-19T09:43:06.002Z,10.96
2018-10-19T09:44:05.815Z,10.94
2018-10-19T09:45:05.807Z,10.96
2018-10-19T09:46:05.784Z,10.97
2018-10-19T09:47:05.816Z,10.94
2018-10-19T09:48:05.743Z,10.91
2018-10-19T09:49:05.785Z,10.94
2018-10-19T09:50:05.708Z,11.00
2018-10-19T09:51:05.778Z,11.00
2018-10-19T09:52:05.682Z,10.99
2018-10-19T09:53:05.705Z,10.85
2018-10-19T09:54:05.692Z,10.82
2018-10-19T09:55:05.675Z,10.85
2018-10-19T09:56:05.681Z,10.89
2018-10-19T09:57:05.836Z,10.86
2018-10-19T09:58:05.591Z,10.79
2018-10-19T09:59:05.628Z,10.82
2018-10-19T10:00:05.642Z,10.89
2018-10-19T10:01:05.613Z,10.78
2018-10-19T10:02:05.563Z,10.78
2018-10-19T10:03:05.571Z,10.84
2018-10-19T10:04:05.531Z,10.79
2018-10-19T10:05:05.523Z,10.82
2018-10-19T10:06:05.482Z,10.89
2018-10-19T10:07:05.480Z,10.91
2018-10-19T10:08:05.538Z,11.00
2018-10-19T10:09:05.511Z,11.15
2018-10-19T10:10:05.413Z,11.17
2018-10-19T10:11:07.422Z,11.04
2018-10-19T10:12:05.462Z,11.06
2018-10-19T10:13:05.394Z,11.15
2018-10-19T10:14:05.387Z,11.18
2018-10-19T10:15:05.484Z,11.35
2018-10-19T10:16:05.321Z,11.29
2018-10-19T10:17:05.338Z,11.37
2018-10-19T10:18:05.298Z,11.46
2018-10-19T10:19:05.283Z,11.44
2018-10-19T10:20:05.275Z,11.46
2018-10-19T10:21:05.243Z,11.54
2018-10-19T10:22:05.607Z,11.62
2018-10-19T10:23:05.229Z,11.52
2018-10-19T10:24:05.337Z,11.49
2018-10-19T10:25:05.259Z,11.52
2018-10-19T10:26:05.181Z,11.46
2018-10-19T10:27:05.155Z,11.49
2018-10-19T10:28:05.148Z,11.49
2018-10-19T10:29:05.138Z,11.57
2018-10-19T10:30:05.111Z,11.60
2018-10-19T10:31:05.179Z,11.60
2018-10-19T10:32:05.129Z,11.54
2018-10-19T10:33:05.081Z,11.61
2018-10-19T10:34:05.115Z,11.54
2018-10-19T10:35:05.093Z,11.54
2018-10-19T10:36:05.034Z,11.58
2018-10-19T10:37:05.084Z,11.57
2018-10-19T10:38:05.012Z,11.65
2018-10-19T10:39:05.063Z,11.62
2018-10-19T10:40:05.062Z,11.65
2018-10-19T10:41:04.988Z,11.65
2018-10-19T10:42:04.979Z,11.64
2018-10-19T10:43:04.968Z,11.67
2018-10-19T10:44:04.919Z,11.82
2018-10-19T10:45:04.962Z,11.80
2018-10-19T10:46:04.962Z,11.83
2018-10-19T10:47:04.921Z,11.85
2018-10-19T10:48:04.866Z,11.78
2018-10-19T10:49:04.864Z,11.80
2018-10-19T10:50:04.844Z,11.90
2018-10-19T10:51:04.856Z,11.90
2018-10-19T10:52:04.897Z,11.91
2018-10-19T10:53:04.780Z,11.90
2018-10-19T10:54:04.776Z,12.01
2018-10-19T10:55:04.811Z,11.91
2018-10-19T10:56:04.740Z,11.96
2018-10-19T10:57:04.768Z,11.96
2018-10-19T10:58:04.768Z,12.04
2018-10-19T10:59:04.699Z,11.94
2018-10-19T11:00:04.717Z,11.99
2018-10-19T11:01:04.682Z,12.05
2018-10-19T11:02:04.697Z,12.09
2018-10-19T11:03:04.678Z,11.99
2018-10-19T11:04:04.648Z,11.94
2018-10-19T11:05:04.629Z,11.95
2018-10-19T11:06:04.633Z,11.88
2018-10-19T11:07:04.650Z,12.01
2018-10-19T11:08:04.583Z,11.85
2018-10-19T11:09:04.581Z,11.86
2018-10-19T11:10:04.565Z,11.88
2018-10-19T11:11:04.529Z,11.85
2018-10-19T11:12:04.560Z,11.79
2018-10-19T11:13:04.504Z,11.91
2018-10-19T11:14:04.502Z,11.80
2018-10-19T11:15:04.483Z,11.90
2018-10-19T11:16:04.500Z,11.95
2018-10-19T11:17:04.483Z,11.98
2018-10-19T11:18:04.467Z,12.04
2018-10-19T11:19:04.462Z,12.05
2018-10-19T11:20:04.404Z,12.05
2018-10-19T11:21:04.400Z,12.07
2018-10-19T11:22:04.414Z,12.10
2018-10-19T11:23:04.365Z,12.12
2018-10-19T11:24:04.411Z,12.16
2018-10-19T11:25:04.408Z,12.14
2018-10-19T11:26:04.320Z,12.17
2018-10-19T11:27:04.317Z,12.21
2018-10-19T11:28:05.498Z,12.19
2018-10-19T11:29:04.528Z,12.23
2018-10-19T11:30:04.494Z,12.19
2018-10-19T11:31:04.301Z,12.21
2018-10-19T11:32:04.233Z,12.29
2018-10-19T11:33:04.222Z,12.38
2018-10-19T11:34:04.221Z,12.37
2018-10-19T11:35:04.258Z,12.54
2018-10-19T11:36:04.185Z,12.56
2018-10-19T11:37:04.188Z,12.71
2018-10-19T11:38:04.184Z,12.93
2018-10-19T11:39:04.149Z,13.10
2018-10-19T11:40:04.163Z,13.36
2018-10-19T11:41:04.119Z,13.51
2018-10-19T11:42:04.115Z,13.52
2018-10-19T11:43:04.134Z,13.63
2018-10-19T11:44:04.081Z,13.64
2018-10-19T11:45:04.059Z,13.63
2018-10-19T11:46:04.081Z,13.52
2018-10-19T11:47:04.037Z,13.60
2018-10-19T11:48:04.038Z,13.51
2018-10-19T11:49:04.072Z,13.29
2018-10-19T11:50:04.030Z,13.19
2018-10-19T11:51:04.008Z,13.17
2018-10-19T11:52:04.023Z,13.15
2018-10-19T11:53:03.971Z,13.17
2018-10-19T11:54:03.952Z,13.08
2018-10-19T11:55:03.966Z,13.28
2018-10-19T11:56:03.933Z,13.20
2018-10-19T11:57:03.949Z,13.19
2018-10-19T11:58:03.966Z,13.19
2018-10-19T11:59:03.891Z,13.22
2018-10-19T12:00:03.885Z,13.17
2018-10-19T12:01:03.935Z,13.14
2018-10-19T12:02:03.857Z,13.14
2018-10-19T12:03:03.850Z,13.03
2018-10-19T12:04:03.852Z,12.96
2018-10-19T12:05:03.826Z,13.00
2018-10-19T12:06:03.840Z,12.96
2018-10-19T12:07:03.863Z,13.03
2018-10-19T12:08:03.780Z,13.04
2018-10-19T12:09:03.767Z,13.01
2018-10-19T12:10:03.767Z,13.00
2018-10-19T12:11:03.802Z,12.92
2018-10-19T12:12:03.726Z,13.07
2018-10-19T12:13:03.724Z,13.07
2018-10-19T12:14:03.701Z,13.07
2018-10-19T12:15:03.755Z,13.14
2018-10-19T12:16:03.742Z,13.03
2018-10-19T12:17:03.748Z,13.04
2018-10-19T12:18:03.656Z,13.14
2018-10-19T12:19:03.682Z,13.03
2018-10-19T12:20:03.649Z,13.08
2018-10-19T12:21:03.765Z,13.07
2018-10-19T12:22:03.687Z,13.12
2018-10-19T12:23:03.583Z,13.10
2018-10-19T12:24:03.584Z,13.20
2018-10-19T12:25:03.578Z,13.10
2018-10-19T12:26:03.573Z,13.12
2018-10-19T12:27:03.599Z,13.12
2018-10-19T12:28:03.552Z,13.19
2018-10-19T12:29:03.503Z,13.17
2018-10-19T12:30:03.549Z,13.20
2018-10-19T12:31:03.507Z,13.22
2018-10-19T12:32:03.567Z,13.20
2018-10-19T12:33:03.548Z,13.28
2018-10-19T12:34:03.452Z,13.33
2018-10-19T12:35:03.433Z,13.39
2018-10-19T12:36:03.415Z,13.39
2018-10-19T12:37:03.481Z,13.46
2018-10-19T12:38:03.429Z,13.42
2018-10-19T12:39:03.444Z,13.45
2018-10-19T12:40:03.366Z,13.49
2018-10-19T12:41:03.363Z,13.45
2018-10-19T12:42:03.337Z,13.45
2018-10-19T12:43:03.357Z,13.52
2018-10-19T12:44:03.325Z,13.48
2018-10-19T12:45:03.362Z,13.46
2018-10-19T12:46:03.288Z,13.45
2018-10-19T12:47:03.279Z,13.49
2018-10-19T12:48:03.325Z,13.52
2018-10-19T12:49:03.258Z,13.49
2018-10-19T12:50:03.245Z,13.52
2018-10-19T12:51:03.284Z,13.52
2018-10-19T12:52:03.212Z,13.46
2018-10-19T12:53:03.200Z,13.57
2018-10-19T12:54:03.362Z,13.51
2018-10-19T12:55:03.224Z,13.60
2018-10-19T12:56:03.163Z,13.62
2018-10-19T12:57:03.202Z,13.57
2018-10-19T12:58:03.133Z,13.67